Aérodrome :
LOGIN :

S'inscrire | Disclaimer

   EN    FR    IT 

 










Légende :    VFR   VFR Marginal   IFR   IFR Intensif   IFR Très Intensif
Visi : 
Plafond : 
>= 8 km
>= 3000ft
5 à 8 km
1000 à 3000 ft
1500m à 5 km
500 à 1000 ft
800 à 1500m
200 à 500 ft
< 800m
< 200 ft
Symboles :   Orages  Brouillard  Fortes neiges  Fortes précipitations  Vent > 20 kt
SIGMETs :   Divers  Orages  Givrage  Turbulence  Onde Orograph.  Cendres Volcan.







- Altitude de l'aérodrome : 768 ft
- Code IATA : MXP


LIMC - Milano Malpensa

DERNIER METAR :
  • 231550Z VRB02KT 2500 BR OVC030 09/06 Q1013 NOSIG

METARs EXPIRÉS :
  • 231520Z 19001KT 2500 BR OVC030 09/06 Q1013 NOSIG
  • 231450Z VRB02KT 2500 BR OVC030 09/06 Q1013 NOSIG
  • 231420Z VRB02KT 3000 BR BKN025 09/06 Q1014 NOSIG
  • 231350Z 10003KT 060V160 3000 BR BKN025 09/06 Q1014 NOSIG
  • 231320Z 12004KT 090V160 2500 BR BKN025 09/06 Q1014 NOSIG

TAF TAF LIMC
Valide du 23 à 12h jusqu'au 24 à 18h UTC


231100Z 2312/2418 VRB05KT 3000 BR BKN016
BECMG 2320/2322 1200 BCFG
TEMPO 2402/2408 0600 FG
Pas de NOTAMs connus pour ce terrain.



MET'MAP, la Météo Aéronautique d'un coup d'oeil ! - Copyright ORBIFLY Décembre 2007 - Disclaimer

ORBIFLY MET'MAP TEAM :

Programmation & Développement : Alexandra Zaïnal
Conception & Développement : Baudouin d'Aumeries
Co-Programmation & Développement : Marc-Olivier Méhu
Soutien technique & logistique : Manuel Goepfert

Contact : metmap@orbifly.com




SOURCES & CREDITS :

   NOAA